sensor_id;sensor_type;location;lat;lon;timestamp;P1;durP1;ratioP1;P2;durP2;ratioP2
5555;SDS011;2801;50.972;7.856;2023-09-12T00:00:46;13.75;;;9.48;;
5555;SDS011;2801;50.972;7.856;2023-09-12T00:03:14;16.08;;;10.70;;
5555;SDS011;2801;50.972;7.856;2023-09-12T00:05:53;15.98;;;9.38;;
5555;SDS011;2801;50.972;7.856;2023-09-12T00:08:22;17.85;;;10.50;;
5555;SDS011;2801;50.972;7.856;2023-09-12T00:11:00;15.18;;;9.05;;
5555;SDS011;2801;50.972;7.856;2023-09-12T00:13:41;16.48;;;9.55;;
5555;SDS011;2801;50.972;7.856;2023-09-12T00:16:08;15.13;;;9.45;;
5555;SDS011;2801;50.972;7.856;2023-09-12T00:18:38;13.65;;;9.60;;
5555;SDS011;2801;50.972;7.856;2023-09-12T00:21:07;15.85;;;9.70;;
5555;SDS011;2801;50.972;7.856;2023-09-12T00:23:34;15.15;;;9.85;;
5555;SDS011;2801;50.972;7.856;2023-09-12T00:26:02;16.67;;;9.45;;
5555;SDS011;2801;50.972;7.856;2023-09-12T00:28:29;15.45;;;9.82;;
5555;SDS011;2801;50.972;7.856;2023-09-12T00:30:55;19.10;;;10.13;;
5555;SDS011;2801;50.972;7.856;2023-09-12T00:33:22;21.58;;;9.55;;
5555;SDS011;2801;50.972;7.856;2023-09-12T00:35:49;13.68;;;9.63;;
5555;SDS011;2801;50.972;7.856;2023-09-12T00:38:16;19.77;;;10.18;;
5555;SDS011;2801;50.972;7.856;2023-09-12T00:40:44;15.82;;;10.15;;
5555;SDS011;2801;50.972;7.856;2023-09-12T00:43:11;16.25;;;9.98;;
5555;SDS011;2801;50.972;7.856;2023-09-12T00:45:38;12.63;;;8.98;;
5555;SDS011;2801;50.972;7.856;2023-09-12T00:48:07;13.75;;;8.82;;
5555;SDS011;2801;50.972;7.856;2023-09-12T00:50:36;13.52;;;9.68;;
5555;SDS011;2801;50.972;7.856;2023-09-12T00:53:04;18.20;;;9.90;;
5555;SDS011;2801;50.972;7.856;2023-09-12T00:55:33;14.25;;;9.00;;
5555;SDS011;2801;50.972;7.856;2023-09-12T00:58:03;12.75;;;8.75;;
5555;SDS011;2801;50.972;7.856;2023-09-12T01:00:30;13.10;;;9.13;;
5555;SDS011;2801;50.972;7.856;2023-09-12T01:02:58;16.33;;;9.07;;
5555;SDS011;2801;50.972;7.856;2023-09-12T01:05:25;13.60;;;9.35;;
5555;SDS011;2801;50.972;7.856;2023-09-12T01:07:53;16.52;;;10.57;;
5555;SDS011;2801;50.972;7.856;2023-09-12T01:10:20;18.98;;;10.45;;
5555;SDS011;2801;50.972;7.856;2023-09-12T01:12:47;16.90;;;10.18;;
5555;SDS011;2801;50.972;7.856;2023-09-12T01:15:14;17.40;;;10.52;;
5555;SDS011;2801;50.972;7.856;2023-09-12T01:17:42;13.70;;;9.32;;
5555;SDS011;2801;50.972;7.856;2023-09-12T01:20:13;19.75;;;9.52;;
5555;SDS011;2801;50.972;7.856;2023-09-12T01:26:29;16.92;;;9.82;;
5555;SDS011;2801;50.972;7.856;2023-09-12T01:29:13;16.48;;;9.80;;
5555;SDS011;2801;50.972;7.856;2023-09-12T01:31:43;16.33;;;9.85;;
5555;SDS011;2801;50.972;7.856;2023-09-12T01:34:13;13.55;;;9.68;;
5555;SDS011;2801;50.972;7.856;2023-09-12T01:36:40;14.18;;;9.13;;
5555;SDS011;2801;50.972;7.856;2023-09-12T01:39:07;17.98;;;10.13;;
5555;SDS011;2801;50.972;7.856;2023-09-12T01:41:35;13.02;;;9.82;;
5555;SDS011;2801;50.972;7.856;2023-09-12T01:44:08;17.33;;;10.63;;
5555;SDS011;2801;50.972;7.856;2023-09-12T01:46:38;12.93;;;9.43;;
5555;SDS011;2801;50.972;7.856;2023-09-12T01:49:06;17.35;;;10.57;;
5555;SDS011;2801;50.972;7.856;2023-09-12T01:51:36;17.73;;;9.57;;
5555;SDS011;2801;50.972;7.856;2023-09-12T01:54:04;17.63;;;11.02;;
5555;SDS011;2801;50.972;7.856;2023-09-12T01:56:33;18.25;;;10.20;;
5555;SDS011;2801;50.972;7.856;2023-09-12T01:59:02;13.38;;;9.48;;
5555;SDS011;2801;50.972;7.856;2023-09-12T02:01:29;13.85;;;8.88;;
5555;SDS011;2801;50.972;7.856;2023-09-12T02:03:57;15.30;;;9.52;;
5555;SDS011;2801;50.972;7.856;2023-09-12T02:06:24;14.82;;;9.73;;
5555;SDS011;2801;50.972;7.856;2023-09-12T02:08:51;15.93;;;10.27;;
5555;SDS011;2801;50.972;7.856;2023-09-12T02:11:18;17.00;;;10.85;;
5555;SDS011;2801;50.972;7.856;2023-09-12T02:13:45;14.45;;;10.57;;
5555;SDS011;2801;50.972;7.856;2023-09-12T02:16:11;19.17;;;10.65;;
5555;SDS011;2801;50.972;7.856;2023-09-12T02:18:39;15.05;;;11.02;;
5555;SDS011;2801;50.972;7.856;2023-09-12T02:21:06;17.92;;;10.55;;
5555;SDS011;2801;50.972;7.856;2023-09-12T02:23:33;15.70;;;9.98;;
5555;SDS011;2801;50.972;7.856;2023-09-12T02:26:00;15.35;;;9.98;;
5555;SDS011;2801;50.972;7.856;2023-09-12T02:28:27;15.60;;;10.82;;
5555;SDS011;2801;50.972;7.856;2023-09-12T02:30:55;17.00;;;10.75;;
5555;SDS011;2801;50.972;7.856;2023-09-12T02:33:21;15.98;;;10.63;;
5555;SDS011;2801;50.972;7.856;2023-09-12T02:35:49;15.40;;;10.43;;
5555;SDS011;2801;50.972;7.856;2023-09-12T02:38:16;15.95;;;10.25;;
5555;SDS011;2801;50.972;7.856;2023-09-12T02:40:44;18.48;;;11.23;;
5555;SDS011;2801;50.972;7.856;2023-09-12T02:43:11;17.75;;;10.82;;
5555;SDS011;2801;50.972;7.856;2023-09-12T02:45:38;15.93;;;11.10;;
5555;SDS011;2801;50.972;7.856;2023-09-12T02:48:05;17.25;;;11.82;;
5555;SDS011;2801;50.972;7.856;2023-09-12T02:50:32;18.55;;;11.80;;
5555;SDS011;2801;50.972;7.856;2023-09-12T02:52:59;19.38;;;11.85;;
5555;SDS011;2801;50.972;7.856;2023-09-12T02:55:26;18.52;;;11.77;;
5555;SDS011;2801;50.972;7.856;2023-09-12T02:57:53;18.63;;;11.75;;
5555;SDS011;2801;50.972;7.856;2023-09-12T03:00:20;17.88;;;11.27;;
5555;SDS011;2801;50.972;7.856;2023-09-12T03:02:47;21.92;;;12.85;;
5555;SDS011;2801;50.972;7.856;2023-09-12T03:05:14;17.38;;;11.85;;
5555;SDS011;2801;50.972;7.856;2023-09-12T03:07:41;17.75;;;12.50;;
5555;SDS011;2801;50.972;7.856;2023-09-12T03:10:08;20.60;;;12.32;;
5555;SDS011;2801;50.972;7.856;2023-09-12T03:12:36;16.85;;;11.30;;
5555;SDS011;2801;50.972;7.856;2023-09-12T03:15:03;17.75;;;11.52;;
5555;SDS011;2801;50.972;7.856;2023-09-12T03:17:35;14.73;;;10.15;;
5555;SDS011;2801;50.972;7.856;2023-09-12T03:20:02;15.07;;;10.60;;
5555;SDS011;2801;50.972;7.856;2023-09-12T03:22:33;19.30;;;10.80;;
5555;SDS011;2801;50.972;7.856;2023-09-12T03:25:04;15.65;;;10.63;;
5555;SDS011;2801;50.972;7.856;2023-09-12T03:27:32;17.58;;;11.50;;
5555;SDS011;2801;50.972;7.856;2023-09-12T03:29:59;17.35;;;11.40;;
5555;SDS011;2801;50.972;7.856;2023-09-12T03:32:26;19.15;;;11.30;;
5555;SDS011;2801;50.972;7.856;2023-09-12T03:34:53;16.30;;;10.95;;
5555;SDS011;2801;50.972;7.856;2023-09-12T03:37:20;16.08;;;10.75;;
5555;SDS011;2801;50.972;7.856;2023-09-12T03:39:48;18.17;;;11.30;;
5555;SDS011;2801;50.972;7.856;2023-09-12T03:42:15;18.17;;;11.73;;
5555;SDS011;2801;50.972;7.856;2023-09-12T03:44:42;16.40;;;11.55;;
5555;SDS011;2801;50.972;7.856;2023-09-12T03:47:09;14.30;;;10.77;;
5555;SDS011;2801;50.972;7.856;2023-09-12T03:49:35;18.90;;;11.25;;
5555;SDS011;2801;50.972;7.856;2023-09-12T03:52:03;14.95;;;10.98;;
5555;SDS011;2801;50.972;7.856;2023-09-12T03:54:31;21.27;;;11.73;;
5555;SDS011;2801;50.972;7.856;2023-09-12T03:56:58;17.35;;;10.80;;
5555;SDS011;2801;50.972;7.856;2023-09-12T03:59:25;18.80;;;11.35;;
5555;SDS011;2801;50.972;7.856;2023-09-12T04:01:52;17.15;;;11.48;;
5555;SDS011;2801;50.972;7.856;2023-09-12T04:04:19;20.17;;;12.07;;
5555;SDS011;2801;50.972;7.856;2023-09-12T04:06:46;16.70;;;11.35;;
5555;SDS011;2801;50.972;7.856;2023-09-12T04:09:14;23.40;;;12.52;;
5555;SDS011;2801;50.972;7.856;2023-09-12T04:11:41;19.20;;;13.15;;
5555;SDS011;2801;50.972;7.856;2023-09-12T04:14:13;20.13;;;12.88;;
5555;SDS011;2801;50.972;7.856;2023-09-12T04:16:40;19.73;;;11.65;;
5555;SDS011;2801;50.972;7.856;2023-09-12T04:19:08;19.85;;;12.70;;
5555;SDS011;2801;50.972;7.856;2023-09-12T04:21:35;22.02;;;13.93;;
5555;SDS011;2801;50.972;7.856;2023-09-12T04:24:02;18.55;;;13.15;;
5555;SDS011;2801;50.972;7.856;2023-09-12T04:26:30;20.42;;;12.88;;
5555;SDS011;2801;50.972;7.856;2023-09-12T04:28:57;18.50;;;11.23;;
5555;SDS011;2801;50.972;7.856;2023-09-12T04:31:24;18.60;;;10.98;;
5555;SDS011;2801;50.972;7.856;2023-09-12T04:33:51;17.42;;;10.57;;
5555;SDS011;2801;50.972;7.856;2023-09-12T04:36:18;16.67;;;10.30;;
5555;SDS011;2801;50.972;7.856;2023-09-12T04:38:46;14.40;;;10.77;;
5555;SDS011;2801;50.972;7.856;2023-09-12T04:41:13;19.02;;;9.85;;
5555;SDS011;2801;50.972;7.856;2023-09-12T04:43:43;16.08;;;11.40;;
5555;SDS011;2801;50.972;7.856;2023-09-12T04:46:11;16.05;;;11.25;;
5555;SDS011;2801;50.972;7.856;2023-09-12T04:48:39;21.70;;;12.30;;
5555;SDS011;2801;50.972;7.856;2023-09-12T04:51:07;22.65;;;14.68;;
5555;SDS011;2801;50.972;7.856;2023-09-12T04:53:34;27.63;;;15.60;;
5555;SDS011;2801;50.972;7.856;2023-09-12T04:56:02;28.40;;;16.50;;
5555;SDS011;2801;50.972;7.856;2023-09-12T04:58:29;27.65;;;17.58;;
5555;SDS011;2801;50.972;7.856;2023-09-12T05:00:56;29.23;;;18.20;;
5555;SDS011;2801;50.972;7.856;2023-09-12T05:03:23;31.83;;;17.55;;
5555;SDS011;2801;50.972;7.856;2023-09-12T05:05:53;32.08;;;19.20;;
5555;SDS011;2801;50.972;7.856;2023-09-12T05:08:20;26.65;;;16.08;;
5555;SDS011;2801;50.972;7.856;2023-09-12T05:10:47;31.25;;;18.38;;
5555;SDS011;2801;50.972;7.856;2023-09-12T05:13:14;26.42;;;17.98;;
5555;SDS011;2801;50.972;7.856;2023-09-12T05:15:41;27.67;;;17.75;;
5555;SDS011;2801;50.972;7.856;2023-09-12T05:18:08;32.22;;;18.80;;
5555;SDS011;2801;50.972;7.856;2023-09-12T05:20:35;30.38;;;18.50;;
5555;SDS011;2801;50.972;7.856;2023-09-12T05:23:02;31.08;;;19.95;;
5555;SDS011;2801;50.972;7.856;2023-09-12T05:25:29;35.47;;;19.67;;
5555;SDS011;2801;50.972;7.856;2023-09-12T05:27:56;39.45;;;21.05;;
5555;SDS011;2801;50.972;7.856;2023-09-12T05:30:23;27.23;;;17.70;;
5555;SDS011;2801;50.972;7.856;2023-09-12T05:32:51;30.13;;;18.38;;
5555;SDS011;2801;50.972;7.856;2023-09-12T05:35:18;30.17;;;18.95;;
5555;SDS011;2801;50.972;7.856;2023-09-12T05:37:47;31.73;;;20.08;;
5555;SDS011;2801;50.972;7.856;2023-09-12T05:40:15;25.98;;;17.27;;
5555;SDS011;2801;50.972;7.856;2023-09-12T05:42:43;30.33;;;18.17;;
5555;SDS011;2801;50.972;7.856;2023-09-12T05:45:10;27.42;;;18.13;;
5555;SDS011;2801;50.972;7.856;2023-09-12T05:47:37;26.90;;;17.80;;
5555;SDS011;2801;50.972;7.856;2023-09-12T05:50:05;32.47;;;17.92;;
5555;SDS011;2801;50.972;7.856;2023-09-12T05:52:33;24.83;;;16.25;;
5555;SDS011;2801;50.972;7.856;2023-09-12T05:55:00;28.55;;;17.52;;
5555;SDS011;2801;50.972;7.856;2023-09-12T05:57:27;24.75;;;15.88;;
5555;SDS011;2801;50.972;7.856;2023-09-12T05:59:54;28.80;;;17.45;;
5555;SDS011;2801;50.972;7.856;2023-09-12T06:02:21;23.05;;;15.63;;
5555;SDS011;2801;50.972;7.856;2023-09-12T06:04:48;27.10;;;16.55;;
5555;SDS011;2801;50.972;7.856;2023-09-12T06:07:16;22.35;;;15.52;;
5555;SDS011;2801;50.972;7.856;2023-09-12T06:09:43;24.88;;;15.15;;
5555;SDS011;2801;50.972;7.856;2023-09-12T06:12:10;27.00;;;15.75;;
5555;SDS011;2801;50.972;7.856;2023-09-12T06:14:37;28.70;;;17.77;;
5555;SDS011;2801;50.972;7.856;2023-09-12T06:17:04;29.77;;;17.45;;
5555;SDS011;2801;50.972;7.856;2023-09-12T06:19:31;30.05;;;19.23;;
5555;SDS011;2801;50.972;7.856;2023-09-12T06:21:58;27.15;;;18.50;;
5555;SDS011;2801;50.972;7.856;2023-09-12T06:24:25;29.38;;;18.45;;
5555;SDS011;2801;50.972;7.856;2023-09-12T06:26:52;28.75;;;18.88;;
5555;SDS011;2801;50.972;7.856;2023-09-12T06:29:19;30.17;;;19.65;;
5555;SDS011;2801;50.972;7.856;2023-09-12T06:31:46;31.48;;;20.75;;
5555;SDS011;2801;50.972;7.856;2023-09-12T06:34:13;29.17;;;20.45;;
5555;SDS011;2801;50.972;7.856;2023-09-12T06:36:40;31.77;;;19.90;;
5555;SDS011;2801;50.972;7.856;2023-09-12T06:39:11;29.42;;;18.88;;
5555;SDS011;2801;50.972;7.856;2023-09-12T06:41:38;27.85;;;18.42;;
5555;SDS011;2801;50.972;7.856;2023-09-12T06:44:05;29.40;;;17.45;;
5555;SDS011;2801;50.972;7.856;2023-09-12T06:46:33;28.25;;;18.60;;
5555;SDS011;2801;50.972;7.856;2023-09-12T06:49:04;29.63;;;18.10;;
5555;SDS011;2801;50.972;7.856;2023-09-12T06:51:31;28.67;;;18.92;;
5555;SDS011;2801;50.972;7.856;2023-09-12T06:54:03;29.27;;;19.35;;
5555;SDS011;2801;50.972;7.856;2023-09-12T06:56:30;30.70;;;20.02;;
5555;SDS011;2801;50.972;7.856;2023-09-12T06:58:58;29.23;;;18.77;;
5555;SDS011;2801;50.972;7.856;2023-09-12T07:01:26;28.83;;;16.85;;
5555;SDS011;2801;50.972;7.856;2023-09-12T07:03:53;24.20;;;16.65;;
5555;SDS011;2801;50.972;7.856;2023-09-12T07:06:21;24.20;;;16.25;;
5555;SDS011;2801;50.972;7.856;2023-09-12T07:08:49;24.38;;;17.02;;
5555;SDS011;2801;50.972;7.856;2023-09-12T07:11:17;23.67;;;15.98;;
5555;SDS011;2801;50.972;7.856;2023-09-12T07:13:45;22.02;;;15.65;;
5555;SDS011;2801;50.972;7.856;2023-09-12T07:16:12;22.88;;;14.98;;
5555;SDS011;2801;50.972;7.856;2023-09-12T07:18:39;20.23;;;14.20;;
5555;SDS011;2801;50.972;7.856;2023-09-12T07:21:07;23.10;;;14.30;;
5555;SDS011;2801;50.972;7.856;2023-09-12T07:23:34;18.60;;;13.60;;
5555;SDS011;2801;50.972;7.856;2023-09-12T07:26:01;25.33;;;14.90;;
5555;SDS011;2801;50.972;7.856;2023-09-12T07:28:29;18.27;;;12.30;;
5555;SDS011;2801;50.972;7.856;2023-09-12T07:30:57;19.75;;;13.05;;
5555;SDS011;2801;50.972;7.856;2023-09-12T07:33:25;20.35;;;12.70;;
5555;SDS011;2801;50.972;7.856;2023-09-12T07:35:52;20.58;;;13.32;;
5555;SDS011;2801;50.972;7.856;2023-09-12T07:38:20;22.05;;;13.10;;
5555;SDS011;2801;50.972;7.856;2023-09-12T07:40:48;21.48;;;12.30;;
5555;SDS011;2801;50.972;7.856;2023-09-12T07:43:15;20.13;;;12.38;;
5555;SDS011;2801;50.972;7.856;2023-09-12T07:45:42;20.27;;;12.98;;
5555;SDS011;2801;50.972;7.856;2023-09-12T07:48:10;15.38;;;11.13;;
5555;SDS011;2801;50.972;7.856;2023-09-12T07:50:37;21.35;;;12.75;;
5555;SDS011;2801;50.972;7.856;2023-09-12T07:53:05;16.38;;;11.18;;
5555;SDS011;2801;50.972;7.856;2023-09-12T07:55:39;22.38;;;12.13;;
5555;SDS011;2801;50.972;7.856;2023-09-12T07:58:15;16.63;;;11.63;;
5555;SDS011;2801;50.972;7.856;2023-09-12T08:00:47;19.15;;;11.52;;
5555;SDS011;2801;50.972;7.856;2023-09-12T08:03:15;19.98;;;12.18;;
5555;SDS011;2801;50.972;7.856;2023-09-12T08:05:44;18.70;;;10.73;;
5555;SDS011;2801;50.972;7.856;2023-09-12T08:08:23;19.20;;;10.88;;
5555;SDS011;2801;50.972;7.856;2023-09-12T08:10:50;16.30;;;10.45;;
5555;SDS011;2801;50.972;7.856;2023-09-12T08:13:17;18.08;;;11.52;;
5555;SDS011;2801;50.972;7.856;2023-09-12T08:15:43;18.67;;;11.13;;
5555;SDS011;2801;50.972;7.856;2023-09-12T08:18:11;19.30;;;10.30;;
5555;SDS011;2801;50.972;7.856;2023-09-12T08:20:38;17.63;;;11.82;;
5555;SDS011;2801;50.972;7.856;2023-09-12T08:23:05;14.05;;;10.45;;
5555;SDS011;2801;50.972;7.856;2023-09-12T08:25:32;14.18;;;10.52;;
5555;SDS011;2801;50.972;7.856;2023-09-12T08:27:59;20.27;;;10.90;;
5555;SDS011;2801;50.972;7.856;2023-09-12T08:30:26;21.58;;;10.13;;
5555;SDS011;2801;50.972;7.856;2023-09-12T08:32:55;15.90;;;10.00;;
5555;SDS011;2801;50.972;7.856;2023-09-12T08:35:23;13.13;;;9.00;;
5555;SDS011;2801;50.972;7.856;2023-09-12T08:37:50;14.32;;;9.38;;
5555;SDS011;2801;50.972;7.856;2023-09-12T08:40:17;20.80;;;9.63;;
5555;SDS011;2801;50.972;7.856;2023-09-12T08:42:44;17.00;;;9.65;;
5555;SDS011;2801;50.972;7.856;2023-09-12T08:45:17;18.63;;;9.38;;
5555;SDS011;2801;50.972;7.856;2023-09-12T08:47:53;18.10;;;8.98;;
5555;SDS011;2801;50.972;7.856;2023-09-12T08:50:23;18.60;;;9.13;;
5555;SDS011;2801;50.972;7.856;2023-09-12T08:52:51;23.23;;;9.23;;
5555;SDS011;2801;50.972;7.856;2023-09-12T08:55:33;15.00;;;7.90;;
5555;SDS011;2801;50.972;7.856;2023-09-12T08:58:04;17.27;;;9.20;;
5555;SDS011;2801;50.972;7.856;2023-09-12T09:00:33;16.00;;;8.65;;
5555;SDS011;2801;50.972;7.856;2023-09-12T09:03:02;17.35;;;8.90;;
5555;SDS011;2801;50.972;7.856;2023-09-12T09:05:30;13.07;;;8.45;;
5555;SDS011;2801;50.972;7.856;2023-09-12T09:08:01;15.88;;;8.23;;
5555;SDS011;2801;50.972;7.856;2023-09-12T09:10:29;18.58;;;8.50;;
5555;SDS011;2801;50.972;7.856;2023-09-12T09:13:15;15.80;;;8.45;;
5555;SDS011;2801;50.972;7.856;2023-09-12T09:15:43;15.25;;;8.00;;
5555;SDS011;2801;50.972;7.856;2023-09-12T09:18:10;19.85;;;8.40;;
5555;SDS011;2801;50.972;7.856;2023-09-12T09:20:41;15.75;;;7.95;;
5555;SDS011;2801;50.972;7.856;2023-09-12T09:23:08;17.67;;;8.23;;
5555;SDS011;2801;50.972;7.856;2023-09-12T09:25:41;18.33;;;8.48;;
5555;SDS011;2801;50.972;7.856;2023-09-12T09:28:16;14.90;;;7.72;;
5555;SDS011;2801;50.972;7.856;2023-09-12T09:30:45;15.07;;;8.05;;
5555;SDS011;2801;50.972;7.856;2023-09-12T09:33:21;12.68;;;7.95;;
5555;SDS011;2801;50.972;7.856;2023-09-12T09:35:48;14.65;;;7.60;;
5555;SDS011;2801;50.972;7.856;2023-09-12T09:38:20;16.08;;;8.18;;
5555;SDS011;2801;50.972;7.856;2023-09-12T09:40:47;14.35;;;7.90;;
5555;SDS011;2801;50.972;7.856;2023-09-12T09:43:19;17.17;;;8.63;;
5555;SDS011;2801;50.972;7.856;2023-09-12T09:45:47;17.27;;;9.60;;
5555;SDS011;2801;50.972;7.856;2023-09-12T09:50:50;14.13;;;9.05;;
5555;SDS011;2801;50.972;7.856;2023-09-12T09:53:53;11.52;;;9.13;;
5555;SDS011;2801;50.972;7.856;2023-09-12T09:56:17;15.90;;;9.10;;
5555;SDS011;2801;50.972;7.856;2023-09-12T10:01:19;12.23;;;8.68;;
5555;SDS011;2801;50.972;7.856;2023-09-12T10:03:50;16.65;;;8.70;;
5555;SDS011;2801;50.972;7.856;2023-09-12T10:06:18;12.80;;;9.20;;
5555;SDS011;2801;50.972;7.856;2023-09-12T10:08:53;14.65;;;9.20;;
5555;SDS011;2801;50.972;7.856;2023-09-12T10:11:25;13.38;;;9.23;;
5555;SDS011;2801;50.972;7.856;2023-09-12T10:13:57;13.10;;;9.00;;
5555;SDS011;2801;50.972;7.856;2023-09-12T10:16:31;13.13;;;9.48;;
5555;SDS011;2801;50.972;7.856;2023-09-12T10:19:04;12.45;;;8.85;;
5555;SDS011;2801;50.972;7.856;2023-09-12T10:21:49;13.60;;;9.10;;
5555;SDS011;2801;50.972;7.856;2023-09-12T10:24:20;15.75;;;9.45;;
5555;SDS011;2801;50.972;7.856;2023-09-12T10:26:49;13.43;;;8.77;;
5555;SDS011;2801;50.972;7.856;2023-09-12T10:29:18;13.65;;;8.88;;
5555;SDS011;2801;50.972;7.856;2023-09-12T10:31:46;17.08;;;9.77;;
5555;SDS011;2801;50.972;7.856;2023-09-12T10:34:14;15.07;;;8.82;;
5555;SDS011;2801;50.972;7.856;2023-09-12T10:36:44;15.13;;;8.48;;
5555;SDS011;2801;50.972;7.856;2023-09-12T10:39:13;13.77;;;9.05;;
5555;SDS011;2801;50.972;7.856;2023-09-12T10:41:41;17.55;;;8.57;;
5555;SDS011;2801;50.972;7.856;2023-09-12T10:44:14;15.25;;;9.23;;
5555;SDS011;2801;50.972;7.856;2023-09-12T10:46:44;13.43;;;9.05;;
5555;SDS011;2801;50.972;7.856;2023-09-12T10:49:13;17.77;;;8.80;;
5555;SDS011;2801;50.972;7.856;2023-09-12T10:51:42;12.52;;;8.48;;
5555;SDS011;2801;50.972;7.856;2023-09-12T10:54:15;12.88;;;7.88;;
5555;SDS011;2801;50.972;7.856;2023-09-12T10:57:03;15.90;;;8.40;;
5555;SDS011;2801;50.972;7.856;2023-09-12T10:59:34;18.67;;;8.25;;
5555;SDS011;2801;50.972;7.856;2023-09-12T11:04:55;18.75;;;7.78;;
5555;SDS011;2801;50.972;7.856;2023-09-12T11:07:30;14.88;;;7.32;;
5555;SDS011;2801;50.972;7.856;2023-09-12T11:12:50;16.77;;;8.02;;
5555;SDS011;2801;50.972;7.856;2023-09-12T11:15:23;13.65;;;7.53;;
5555;SDS011;2801;50.972;7.856;2023-09-12T11:18:02;13.95;;;7.40;;
5555;SDS011;2801;50.972;7.856;2023-09-12T11:23:39;14.82;;;7.80;;
5555;SDS011;2801;50.972;7.856;2023-09-12T11:26:07;13.90;;;8.43;;
5555;SDS011;2801;50.972;7.856;2023-09-12T11:28:37;13.80;;;8.13;;
5555;SDS011;2801;50.972;7.856;2023-09-12T11:31:05;13.13;;;7.75;;
5555;SDS011;2801;50.972;7.856;2023-09-12T11:33:33;13.57;;;7.47;;
5555;SDS011;2801;50.972;7.856;2023-09-12T11:36:00;15.05;;;7.72;;
5555;SDS011;2801;50.972;7.856;2023-09-12T11:38:30;12.95;;;7.32;;
5555;SDS011;2801;50.972;7.856;2023-09-12T11:44:06;14.80;;;8.98;;
5555;SDS011;2801;50.972;7.856;2023-09-12T11:46:34;14.85;;;8.68;;
5555;SDS011;2801;50.972;7.856;2023-09-12T11:49:02;11.13;;;8.30;;
5555;SDS011;2801;50.972;7.856;2023-09-12T11:51:30;14.13;;;9.02;;
5555;SDS011;2801;50.972;7.856;2023-09-12T11:53:57;13.93;;;9.80;;
5555;SDS011;2801;50.972;7.856;2023-09-12T11:56:26;12.63;;;9.10;;
5555;SDS011;2801;50.972;7.856;2023-09-12T11:58:55;13.63;;;9.25;;
5555;SDS011;2801;50.972;7.856;2023-09-12T12:01:22;15.68;;;9.73;;
5555;SDS011;2801;50.972;7.856;2023-09-12T12:03:49;14.23;;;9.05;;
5555;SDS011;2801;50.972;7.856;2023-09-12T12:06:19;11.18;;;8.95;;
5555;SDS011;2801;50.972;7.856;2023-09-12T12:08:46;12.80;;;8.63;;
5555;SDS011;2801;50.972;7.856;2023-09-12T12:11:14;17.30;;;9.43;;
5555;SDS011;2801;50.972;7.856;2023-09-12T12:13:43;13.32;;;8.70;;
5555;SDS011;2801;50.972;7.856;2023-09-12T12:16:16;14.60;;;8.77;;
5555;SDS011;2801;50.972;7.856;2023-09-12T12:18:44;11.38;;;9.13;;
5555;SDS011;2801;50.972;7.856;2023-09-12T12:21:14;13.00;;;9.20;;
5555;SDS011;2801;50.972;7.856;2023-09-12T12:23:41;17.98;;;9.00;;
5555;SDS011;2801;50.972;7.856;2023-09-12T12:26:08;13.77;;;9.55;;
5555;SDS011;2801;50.972;7.856;2023-09-12T12:28:36;17.27;;;8.90;;
5555;SDS011;2801;50.972;7.856;2023-09-12T12:31:03;13.70;;;9.65;;
5555;SDS011;2801;50.972;7.856;2023-09-12T12:33:31;14.30;;;8.48;;
5555;SDS011;2801;50.972;7.856;2023-09-12T12:36:19;13.65;;;8.70;;
5555;SDS011;2801;50.972;7.856;2023-09-12T12:38:48;15.00;;;9.63;;
5555;SDS011;2801;50.972;7.856;2023-09-12T12:41:36;12.20;;;8.30;;
5555;SDS011;2801;50.972;7.856;2023-09-12T12:44:16;13.68;;;9.25;;
5555;SDS011;2801;50.972;7.856;2023-09-12T12:46:48;15.35;;;8.50;;
5555;SDS011;2801;50.972;7.856;2023-09-12T12:49:16;13.73;;;9.00;;
5555;SDS011;2801;50.972;7.856;2023-09-12T12:51:44;12.63;;;8.65;;
5555;SDS011;2801;50.972;7.856;2023-09-12T12:54:13;12.43;;;7.75;;
5555;SDS011;2801;50.972;7.856;2023-09-12T12:56:42;15.85;;;8.68;;
5555;SDS011;2801;50.972;7.856;2023-09-12T12:59:13;15.52;;;9.05;;
5555;SDS011;2801;50.972;7.856;2023-09-12T13:01:41;18.17;;;8.73;;
5555;SDS011;2801;50.972;7.856;2023-09-12T13:04:10;12.80;;;8.80;;
5555;SDS011;2801;50.972;7.856;2023-09-12T13:06:38;16.95;;;9.85;;
5555;SDS011;2801;50.972;7.856;2023-09-12T13:09:06;14.48;;;9.48;;
5555;SDS011;2801;50.972;7.856;2023-09-12T13:11:34;14.18;;;9.20;;
5555;SDS011;2801;50.972;7.856;2023-09-12T13:14:02;12.88;;;9.13;;
5555;SDS011;2801;50.972;7.856;2023-09-12T13:16:36;17.88;;;9.30;;
5555;SDS011;2801;50.972;7.856;2023-09-12T13:19:07;14.85;;;9.48;;
5555;SDS011;2801;50.972;7.856;2023-09-12T13:21:34;12.95;;;9.18;;
5555;SDS011;2801;50.972;7.856;2023-09-12T13:24:01;14.95;;;9.02;;
5555;SDS011;2801;50.972;7.856;2023-09-12T13:26:28;16.00;;;9.68;;
5555;SDS011;2801;50.972;7.856;2023-09-12T13:28:56;15.32;;;9.32;;
5555;SDS011;2801;50.972;7.856;2023-09-12T13:31:23;15.23;;;9.48;;
5555;SDS011;2801;50.972;7.856;2023-09-12T13:33:51;15.50;;;8.90;;
5555;SDS011;2801;50.972;7.856;2023-09-12T13:36:18;16.30;;;9.38;;
5555;SDS011;2801;50.972;7.856;2023-09-12T13:38:45;17.40;;;9.45;;
5555;SDS011;2801;50.972;7.856;2023-09-12T13:41:14;17.52;;;10.18;;
5555;SDS011;2801;50.972;7.856;2023-09-12T13:43:42;16.80;;;9.73;;
5555;SDS011;2801;50.972;7.856;2023-09-12T13:46:11;12.77;;;8.88;;
5555;SDS011;2801;50.972;7.856;2023-09-12T13:48:39;13.18;;;10.13;;
5555;SDS011;2801;50.972;7.856;2023-09-12T13:51:06;17.65;;;10.27;;
5555;SDS011;2801;50.972;7.856;2023-09-12T13:53:34;15.77;;;9.40;;
5555;SDS011;2801;50.972;7.856;2023-09-12T13:56:00;15.63;;;8.85;;
5555;SDS011;2801;50.972;7.856;2023-09-12T13:58:38;13.73;;;8.95;;
5555;SDS011;2801;50.972;7.856;2023-09-12T14:01:12;11.98;;;9.07;;
5555;SDS011;2801;50.972;7.856;2023-09-12T14:03:53;14.13;;;8.25;;
5555;SDS011;2801;50.972;7.856;2023-09-12T14:06:21;11.65;;;8.88;;
5555;SDS011;2801;50.972;7.856;2023-09-12T14:08:48;10.90;;;8.63;;
5555;SDS011;2801;50.972;7.856;2023-09-12T14:11:15;10.98;;;8.63;;
5555;SDS011;2801;50.972;7.856;2023-09-12T14:13:59;12.05;;;8.90;;
5555;SDS011;2801;50.972;7.856;2023-09-12T14:16:40;11.38;;;8.55;;
5555;SDS011;2801;50.972;7.856;2023-09-12T14:19:10;12.15;;;8.52;;
5555;SDS011;2801;50.972;7.856;2023-09-12T14:21:38;12.00;;;8.90;;
5555;SDS011;2801;50.972;7.856;2023-09-12T14:24:06;15.00;;;8.63;;
5555;SDS011;2801;50.972;7.856;2023-09-12T14:26:35;13.70;;;8.77;;
5555;SDS011;2801;50.972;7.856;2023-09-12T14:29:04;11.55;;;8.60;;
5555;SDS011;2801;50.972;7.856;2023-09-12T14:31:31;13.32;;;8.90;;
5555;SDS011;2801;50.972;7.856;2023-09-12T14:33:58;11.68;;;8.57;;
5555;SDS011;2801;50.972;7.856;2023-09-12T14:36:25;12.10;;;9.35;;
5555;SDS011;2801;50.972;7.856;2023-09-12T14:38:52;13.10;;;9.13;;
5555;SDS011;2801;50.972;7.856;2023-09-12T14:41:19;14.82;;;8.98;;
5555;SDS011;2801;50.972;7.856;2023-09-12T14:43:46;11.57;;;9.68;;
5555;SDS011;2801;50.972;7.856;2023-09-12T14:46:13;17.55;;;9.70;;
5555;SDS011;2801;50.972;7.856;2023-09-12T14:48:40;11.88;;;8.82;;
5555;SDS011;2801;50.972;7.856;2023-09-12T14:51:20;10.32;;;8.55;;
5555;SDS011;2801;50.972;7.856;2023-09-12T14:53:58;13.52;;;8.63;;
5555;SDS011;2801;50.972;7.856;2023-09-12T14:56:24;11.82;;;8.50;;
5555;SDS011;2801;50.972;7.856;2023-09-12T14:58:51;11.35;;;8.27;;
5555;SDS011;2801;50.972;7.856;2023-09-12T15:01:18;14.05;;;8.75;;
5555;SDS011;2801;50.972;7.856;2023-09-12T15:03:45;14.00;;;8.32;;
5555;SDS011;2801;50.972;7.856;2023-09-12T15:06:13;11.10;;;8.02;;
5555;SDS011;2801;50.972;7.856;2023-09-12T15:08:40;13.15;;;8.20;;
5555;SDS011;2801;50.972;7.856;2023-09-12T15:11:07;11.30;;;7.72;;
5555;SDS011;2801;50.972;7.856;2023-09-12T15:13:34;13.55;;;8.02;;
5555;SDS011;2801;50.972;7.856;2023-09-12T15:16:01;12.05;;;8.02;;
5555;SDS011;2801;50.972;7.856;2023-09-12T15:18:30;11.85;;;8.55;;
5555;SDS011;2801;50.972;7.856;2023-09-12T15:20:58;15.30;;;8.80;;
5555;SDS011;2801;50.972;7.856;2023-09-12T15:23:25;11.48;;;7.97;;
5555;SDS011;2801;50.972;7.856;2023-09-12T15:25:54;13.27;;;8.82;;